Time;durP1;ratioP1;P1;durP2;ratioP2;P2;SDS_P1;SDS_P2;PMS_P1;PMS_P2;Temp;Humidity;BMP_temperature;BMP_pressure;BME280_temperature;BME280_humidity;BME280_pressure;Samples;Min_cycle;Max_cycle;Signal;HPM_P1;HPM_P2
2022/12/12 00:01:54;;;;;;;11.97;8.90;;;;;;;-3.10;100.00;95512.44;4894891;28;101973;-58
2022/12/12 00:04:21;;;;;;;12.27;8.47;;;;;;;-3.08;100.00;95524.25;4894703;28;105290;-58
2022/12/12 00:06:49;;;;;;;10.93;8.73;;;;;;;-3.19;100.00;95524.75;4894112;28;105168;-58
2022/12/12 00:09:16;;;;;;;15.10;8.40;;;;;;;-3.19;100.00;95521.34;4894844;28;101796;-58
2022/12/12 00:11:43;;;;;;;11.67;8.50;;;;;;;-3.08;100.00;95515.63;4894651;28;105098;-57
2022/12/12 00:14:11;;;;;;;14.03;9.17;;;;;;;-2.97;100.00;95526.34;4894482;28;105703;-58
2022/12/12 00:16:38;;;;;;;10.87;8.03;;;;;;;-2.90;100.00;95527.19;4897437;28;101936;-58
2022/12/12 00:19:05;;;;;;;12.47;8.07;;;;;;;-3.01;100.00;95519.13;4911555;28;103326;-58
2022/12/12 00:21:32;;;;;;;16.20;10.20;;;;;;;-2.95;100.00;95523.56;4894417;28;101791;-58
2022/12/12 00:24:00;;;;;;;18.73;12.40;;;;;;;-3.15;100.00;95515.59;4877798;28;105460;-58
2022/12/12 00:26:28;;;;;;;15.70;10.63;;;;;;;-3.13;100.00;95516.22;4893002;28;105098;-58
2022/12/12 00:28:57;;;;;;;14.60;10.50;;;;;;;-2.98;100.00;95527.34;4893671;28;102617;-58
2022/12/12 00:31:25;;;;;;;14.07;10.37;;;;;;;-2.95;100.00;95516.53;4893589;28;105021;-58
2022/12/12 00:33:52;;;;;;;13.87;9.20;;;;;;;-2.84;100.00;95526.44;4892707;28;105523;-58
2022/12/12 00:36:20;;;;;;;11.67;8.63;;;;;;;-2.97;100.00;95531.53;4894405;28;101821;-58
2022/12/12 00:38:48;;;;;;;12.73;8.73;;;;;;;-2.87;100.00;95521.63;4897322;28;105112;-58
2022/12/12 00:41:15;;;;;;;12.37;8.60;;;;;;;-2.98;100.00;95521.31;4897792;28;101978;-58
2022/12/12 00:43:42;;;;;;;10.10;7.43;;;;;;;-2.87;100.00;95529.44;4897750;28;105019;-58
2022/12/12 00:46:13;;;;;;;12.40;7.73;;;;;;;-3.02;100.00;95536.50;4897163;28;105240;-58
2022/12/12 00:48:41;;;;;;;9.53;6.70;;;;;;;-3.16;100.00;95532.16;4897626;28;102369;-58
2022/12/12 00:51:10;;;;;;;8.73;6.50;;;;;;;-3.20;100.00;95533.56;4898140;28;105022;-58
2022/12/12 00:53:37;;;;;;;8.23;6.40;;;;;;;-3.18;100.00;95538.56;4896602;28;104410;-58
2022/12/12 01:27:13;;;;;;;6.57;5.30;;;;;;;-3.54;100.00;95546.44;4907383;28;102209;-59
2022/12/12 01:29:40;;;;;;;7.97;5.63;;;;;;;-3.54;100.00;95543.84;4898045;28;105308;-58
2022/12/12 01:32:07;;;;;;;8.63;5.90;;;;;;;-3.53;100.00;95548.03;4914852;28;103175;-58
2022/12/12 01:34:35;;;;;;;7.63;5.83;;;;;;;-3.53;100.00;95555.81;4919393;28;102142;-58
2022/12/12 01:37:02;;;;;;;7.93;6.10;;;;;;;-3.49;100.00;95551.84;4897830;28;105290;-58
2022/12/12 01:39:29;;;;;;;7.90;5.70;;;;;;;-3.57;100.00;95558.97;4898286;28;101780;-58
2022/12/12 01:41:56;;;;;;;9.17;5.70;;;;;;;-3.54;100.00;95559.41;4898257;28;104866;-58
2022/12/12 01:44:46;;;;;;;7.17;5.70;;;;;;;-3.56;100.00;95556.19;4897248;28;105151;-58
2022/12/12 01:47:14;;;;;;;8.50;6.10;;;;;;;-3.54;100.00;95559.41;4914794;28;101737;-58
2022/12/12 01:49:44;;;;;;;9.47;6.13;;;;;;;-3.61;100.00;95561.13;4897362;28;105643;-58
2022/12/12 01:52:15;;;;;;;7.93;5.97;;;;;;;-3.52;100.00;95562.63;4896864;28;106260;-58
2022/12/12 01:54:46;;;;;;;8.50;6.63;;;;;;;-3.42;100.00;95560.53;4897999;28;101914;-58
2022/12/12 01:57:18;;;;;;;7.53;5.13;;;;;;;-3.33;100.00;95569.81;4901182;28;103574;-59
2022/12/12 01:59:47;;;;;;;7.43;5.70;;;;;;;-3.33;100.00;95567.19;4897806;28;101882;-58
2022/12/12 02:02:14;;;;;;;9.37;5.47;;;;;;;-3.25;100.00;95568.88;4915428;28;102633;-59
2022/12/12 02:04:42;;;;;;;7.33;5.57;;;;;;;-3.33;100.00;95566.41;4898165;28;105037;-58
2022/12/12 02:07:09;;;;;;;7.50;5.80;;;;;;;-3.27;100.00;95566.47;4897056;28;101810;-58
2022/12/12 02:09:38;;;;;;;7.97;5.43;;;;;;;-3.34;100.00;95568.19;4897766;28;104811;-58
2022/12/12 02:12:05;;;;;;;8.70;5.60;;;;;;;-3.44;100.00;95572.09;4913883;28;102712;-58
2022/12/12 02:14:34;;;;;;;5.70;4.70;;;;;;;-3.37;100.00;95578.97;4897758;28;102208;-58
2022/12/12 02:17:30;;;;;;;7.07;5.27;;;;;;;-3.40;100.00;95568.94;4918520;28;101745;-58
2022/12/12 02:20:36;;;;;;;6.40;5.20;;;;;;;-3.37;100.00;95571.19;4914205;28;101880;-58
2022/12/12 02:23:41;;;;;;;7.53;4.80;;;;;;;-3.49;100.00;95571.84;4913878;28;102847;-58
2022/12/12 02:26:46;;;;;;;6.33;4.97;;;;;;;-3.37;100.00;95578.97;4895604;28;105394;-58
2022/12/12 02:29:38;;;;;;;6.03;5.10;;;;;;;-3.40;100.00;95584.53;4891943;28;101894;-58
2022/12/12 02:32:14;;;;;;;8.80;5.33;;;;;;;-3.44;100.00;95585.88;4894272;28;102871;-59
2022/12/12 02:34:49;;;;;;;8.73;5.93;;;;;;;-3.48;100.00;95589.88;4876771;28;104141;-58
2022/12/12 02:37:25;;;;;;;7.80;5.67;;;;;;;-3.52;100.00;95593.00;4895186;28;101762;-58
2022/12/12 02:40:00;;;;;;;8.00;5.97;;;;;;;-3.64;100.00;95590.09;4876814;28;104332;-58
2022/12/12 02:42:50;;;;;;;8.47;6.13;;;;;;;-3.51;100.00;95594.59;4879571;28;105635;-58
2022/12/12 02:45:24;;;;;;;8.20;5.93;;;;;;;-3.57;100.00;95590.94;4876205;28;105804;-58
2022/12/12 02:47:59;;;;;;;8.73;6.60;;;;;;;-3.58;100.00;95593.72;4875917;28;105189;-58
2022/12/12 02:50:30;;;;;;;7.40;5.93;;;;;;;-3.56;100.00;95595.16;4877113;28;101993;-58
2022/12/12 02:52:59;;;;;;;8.63;5.50;;;;;;;-3.67;100.00;95595.63;4894221;28;102674;-58
2022/12/12 02:55:28;;;;;;;6.97;5.40;;;;;;;-3.61;100.00;95596.72;4875710;28;105935;-58
2022/12/12 02:57:55;;;;;;;6.87;5.60;;;;;;;-3.56;100.00;95600.34;4877009;28;101891;-58
2022/12/12 03:00:22;;;;;;;8.23;5.67;;;;;;;-3.62;100.00;95595.88;4876969;28;105059;-58
2022/12/12 03:09:04;;;;;;;7.83;5.57;;;;;;;-3.65;100.00;95593.63;4893072;28;102808;-58
2022/12/12 03:11:48;;;;;;;9.37;5.50;;;;;;;-3.38;100.00;95590.34;4894005;28;101770;-58
2022/12/12 03:14:24;;;;;;;8.03;5.60;;;;;;;-3.46;100.00;95590.47;4893747;28;102898;-58
2022/12/12 03:17:00;;;;;;;7.43;5.93;;;;;;;-3.40;100.00;95594.94;4893246;28;103112;-58
2022/12/12 03:19:30;;;;;;;9.40;5.53;;;;;;;-3.47;100.00;95596.66;4876628;28;101864;-58
2022/12/12 03:22:02;;;;;;;8.80;5.57;;;;;;;-3.58;100.00;95597.13;4876396;28;105693;-58
2022/12/12 03:24:36;;;;;;;6.57;5.20;;;;;;;-3.65;100.00;95598.84;4875293;28;104087;-58
2022/12/12 03:27:09;;;;;;;6.67;5.40;;;;;;;-3.60;100.00;95596.50;4897734;28;101686;-59
2022/12/12 03:29:41;;;;;;;5.70;4.97;;;;;;;-3.62;100.00;95595.06;4915701;28;102403;-58
2022/12/12 03:32:15;;;;;;;8.00;5.30;;;;;;;-3.66;100.00;95597.22;4912577;28;101853;-58
2022/12/12 03:34:47;;;;;;;7.50;5.30;;;;;;;-3.66;100.00;95591.25;4895027;28;105266;-58
2022/12/12 03:37:20;;;;;;;6.90;5.23;;;;;;;-3.76;100.00;95594.13;4894442;28;106016;-58
2022/12/12 03:39:53;;;;;;;6.40;4.97;;;;;;;-3.71;100.00;95599.56;4894908;28;102205;-58
2022/12/12 03:42:25;;;;;;;8.10;5.47;;;;;;;-3.69;100.00;95592.41;4895234;28;105194;-58
2022/12/12 03:44:58;;;;;;;7.00;5.07;;;;;;;-3.66;100.00;95597.22;4894506;28;105877;-58
2022/12/12 03:47:31;;;;;;;9.23;5.63;;;;;;;-3.80;100.00;95602.47;4912701;28;101678;-58
2022/12/12 03:50:03;;;;;;;7.47;5.43;;;;;;;-3.79;100.00;95602.28;4912604;28;102463;-58
2022/12/12 03:52:35;;;;;;;8.37;5.90;;;;;;;-3.74;100.00;95599.13;4915421;28;103181;-58
2022/12/12 03:55:09;;;;;;;7.93;6.00;;;;;;;-3.91;100.00;95593.34;4912764;28;101723;-58
2022/12/12 03:57:42;;;;;;;7.80;5.93;;;;;;;-3.98;100.00;95599.44;4911839;28;102993;-58
2022/12/12 04:00:14;;;;;;;14.83;9.57;;;;;;;-4.05;100.00;95596.75;4912279;28;101760;-58
2022/12/12 04:02:50;;;;;;;14.50;9.83;;;;;;;-4.14;100.00;95595.22;4895100;28;102709;-58
2022/12/12 04:05:24;;;;;;;14.67;9.87;;;;;;;-4.13;100.00;95589.06;4894147;28;105629;-58
2022/12/12 04:07:58;;;;;;;12.17;8.60;;;;;;;-4.24;100.00;95592.13;4894968;28;101909;-58
2022/12/12 04:13:24;;;;;;;10.93;7.40;;;;;;;-4.26;100.00;95595.88;4894286;28;105645;-58
2022/12/12 04:15:57;;;;;;;9.70;6.47;;;;;;;-4.28;100.00;95593.47;4900567;28;101798;-58
2022/12/12 04:18:35;;;;;;;11.57;7.73;;;;;;;-4.39;100.00;95606.06;4897021;28;105412;-58
2022/12/12 04:24:15;;;;;;;8.87;6.73;;;;;;;-4.54;100.00;95600.06;4898151;28;104883;-58
2022/12/12 04:26:48;;;;;;;11.67;7.03;;;;;;;-4.42;100.00;95611.63;4896914;28;105426;-59
2022/12/12 04:29:29;;;;;;;9.93;7.50;;;;;;;-4.38;100.00;95602.47;4897661;28;101831;-58
2022/12/12 04:32:00;;;;;;;11.10;8.57;;;;;;;-4.38;100.00;95600.69;4915463;28;102378;-58
2022/12/12 04:34:36;;;;;;;10.90;8.07;;;;;;;-4.33;100.00;95613.13;4897474;28;105584;-58
2022/12/12 04:37:07;;;;;;;10.17;8.07;;;;;;;-4.37;100.00;95612.69;4901332;28;101914;-58
2022/12/12 04:39:37;;;;;;;9.73;7.57;;;;;;;-4.27;100.00;95613.22;4897187;28;106789;-58
2022/12/12 04:42:08;;;;;;;9.77;7.27;;;;;;;-4.27;100.00;95609.84;4915693;28;101761;-58
2022/12/12 04:44:40;;;;;;;8.43;7.03;;;;;;;-4.28;100.00;95614.22;4882345;28;105275;-58
2022/12/12 04:47:10;;;;;;;9.17;7.00;;;;;;;-4.38;100.00;95621.44;4897052;28;105563;-58
2022/12/12 04:49:41;;;;;;;9.40;7.07;;;;;;;-4.33;100.00;95608.75;4897912;28;102111;-58
2022/12/12 04:52:13;;;;;;;9.87;6.80;;;;;;;-4.41;100.00;95611.44;4897553;28;105582;-58
2022/12/12 04:54:46;;;;;;;10.80;7.03;;;;;;;-4.49;100.00;95616.69;4896937;28;105457;-58
2022/12/12 04:57:19;;;;;;;9.40;6.50;;;;;;;-4.51;100.00;95605.72;4897883;28;102155;-58
2022/12/12 04:59:46;;;;;;;8.93;6.57;;;;;;;-4.53;100.00;95607.66;4900023;28;104861;-58
2022/12/12 05:02:24;;;;;;;10.83;7.50;;;;;;;-4.43;100.00;95610.00;4897510;28;102139;-58
2022/12/12 05:04:57;;;;;;;10.20;7.10;;;;;;;-4.46;100.00;95615.53;4915150;28;102873;-58
2022/12/12 05:07:31;;;;;;;11.23;7.83;;;;;;;-4.40;100.00;95622.63;4896788;28;105740;-58
2022/12/12 05:09:59;;;;;;;14.33;8.17;;;;;;;-4.51;100.00;95626.47;4897782;28;102062;-58
2022/12/12 05:12:27;;;;;;;11.43;7.20;;;;;;;-4.53;100.00;95622.44;4897370;28;105148;-58
2022/12/12 05:14:53;;;;;;;8.73;6.43;;;;;;;-4.57;100.00;95632.34;4896491;28;104090;-58
2022/12/12 05:17:27;;;;;;;10.17;6.80;;;;;;;-4.60;100.00;95632.69;4914383;28;102025;-59
2022/12/12 05:19:54;;;;;;;9.33;6.77;;;;;;;-4.60;100.00;95626.69;4897119;28;104774;-58
2022/12/12 05:22:21;;;;;;;10.03;6.63;;;;;;;-4.81;100.00;95629.97;4899347;28;105521;-58
2022/12/12 05:24:50;;;;;;;10.97;6.90;;;;;;;-4.89;100.00;95632.63;4896921;28;104977;-58
2022/12/12 05:27:16;;;;;;;11.40;7.37;;;;;;;-4.94;100.00;95634.13;4896061;28;105257;-58
2022/12/12 05:29:43;;;;;;;10.53;7.10;;;;;;;-4.81;100.00;95632.56;4896653;28;101835;-58
2022/12/12 05:32:10;;;;;;;10.30;6.60;;;;;;;-4.71;100.00;95635.72;4896081;28;105247;-58
2022/12/12 05:34:37;;;;;;;9.77;6.60;;;;;;;-4.66;100.00;95632.59;4896008;28;105715;-58
2022/12/12 05:37:04;;;;;;;10.37;6.83;;;;;;;-4.67;100.00;95634.38;4896946;28;101900;-58
2022/12/12 05:39:31;;;;;;;9.20;6.73;;;;;;;-4.69;100.00;95632.94;4896794;28;105346;-58
2022/12/12 05:41:59;;;;;;;11.43;6.80;;;;;;;-4.56;100.00;95639.16;4896048;28;105132;-58
2022/12/12 05:44:26;;;;;;;9.77;7.10;;;;;;;-4.61;100.00;95638.88;4899769;28;102165;-59
2022/12/12 05:46:53;;;;;;;8.97;6.67;;;;;;;-4.66;100.00;95638.59;4913025;28;102869;-59
2022/12/12 05:49:20;;;;;;;10.60;7.40;;;;;;;-4.61;100.00;95635.47;4896300;28;101902;-58
2022/12/12 05:51:47;;;;;;;8.97;7.03;;;;;;;-4.59;100.00;95649.88;4913934;28;101874;-59
2022/12/12 05:54:14;;;;;;;9.77;7.10;;;;;;;-4.50;100.00;95650.59;4913493;28;102618;-58
2022/12/12 05:56:41;;;;;;;9.47;7.03;;;;;;;-4.49;100.00;95655.63;4896167;28;102197;-58
2022/12/12 05:59:10;;;;;;;11.10;7.10;;;;;;;-4.56;100.00;95646.13;4896436;28;102716;-58
2022/12/12 06:01:37;;;;;;;11.67;7.67;;;;;;;-4.55;100.00;95651.13;4895518;28;105435;-58
2022/12/12 06:04:04;;;;;;;11.03;7.73;;;;;;;-4.39;100.00;95656.19;4896380;28;101877;-59
2022/12/12 06:06:31;;;;;;;8.77;7.03;;;;;;;-4.37;100.00;95658.59;4898578;28;104699;-59
2022/12/12 06:08:58;;;;;;;11.83;7.47;;;;;;;-4.34;100.00;95653.03;4895992;28;101927;-59
2022/12/12 06:11:24;;;;;;;9.20;6.60;;;;;;;-4.16;100.00;95659.50;4895900;28;105736;-58
2022/12/12 06:13:51;;;;;;;9.37;6.87;;;;;;;-4.28;100.00;95660.13;4895208;28;105724;-59
2022/12/12 06:16:20;;;;;;;9.60;6.50;;;;;;;-4.21;100.00;95664.41;4896110;28;101838;-59
2022/12/12 06:18:51;;;;;;;9.53;7.27;;;;;;;-4.28;100.00;95662.72;4895700;28;104960;-58
2022/12/12 06:21:17;;;;;;;11.20;7.80;;;;;;;-4.33;100.00;95667.63;4895423;28;103986;-58
2022/12/12 06:23:45;;;;;;;12.60;8.03;;;;;;;-4.24;100.00;95669.97;4895671;28;101939;-58
2022/12/12 06:26:14;;;;;;;10.90;7.17;;;;;;;-4.38;100.00;95667.34;4895796;28;105518;-58
2022/12/12 06:28:41;;;;;;;10.10;6.47;;;;;;;-4.38;100.00;95667.34;4912098;28;101922;-59
2022/12/12 06:31:09;;;;;;;9.10;6.83;;;;;;;-4.30;100.00;95662.91;4911809;28;105493;-59
2022/12/12 06:33:38;;;;;;;9.07;6.73;;;;;;;-4.30;100.00;95675.88;4895063;28;105131;-59
2022/12/12 06:36:07;;;;;;;9.67;6.80;;;;;;;-4.30;100.00;95669.88;4911654;28;101879;-59
2022/12/12 06:38:35;;;;;;;10.87;6.97;;;;;;;-4.25;100.00;95673.53;4911052;28;104989;-59
2022/12/12 06:41:06;;;;;;;9.43;6.90;;;;;;;-4.31;100.00;95671.66;4910930;28;105625;-59
2022/12/12 06:43:32;;;;;;;9.93;6.87;;;;;;;-4.16;100.00;95675.06;4911545;28;101871;-59
2022/12/12 06:46:01;;;;;;;10.43;7.03;;;;;;;-4.19;100.00;95672.84;4911385;28;104842;-59
2022/12/12 06:48:29;;;;;;;10.20;6.30;;;;;;;-4.20;100.00;95686.00;4914192;28;105476;-59
2022/12/12 06:50:57;;;;;;;11.23;7.30;;;;;;;-4.24;100.00;95682.97;4911356;28;105252;-59
2022/12/12 06:53:24;;;;;;;13.60;6.87;;;;;;;-4.29;100.00;95687.06;4910839;28;103969;-59
2022/12/12 06:55:51;;;;;;;9.30;6.50;;;;;;;-4.22;100.00;95688.75;4913033;28;101726;-59
2022/12/12 06:58:18;;;;;;;9.93;6.67;;;;;;;-4.20;100.00;95691.19;4911287;28;104081;-59
2022/12/12 07:00:49;;;;;;;11.37;7.63;;;;;;;-4.28;100.00;95697.25;4910396;28;105274;-59
2022/12/12 07:03:16;;;;;;;11.10;6.90;;;;;;;-4.21;100.00;95708.53;4911389;28;101785;-59
2022/12/12 07:05:44;;;;;;;11.93;7.43;;;;;;;-4.15;100.00;95715.63;4911391;28;105248;-59
2022/12/12 07:08:13;;;;;;;9.17;6.70;;;;;;;-4.19;100.00;95714.38;4910484;28;106117;-59
2022/12/12 07:10:40;;;;;;;9.33;7.03;;;;;;;-4.17;100.00;95717.59;4914516;28;102008;-59
2022/12/12 07:13:07;;;;;;;10.93;6.63;;;;;;;-4.25;100.00;95715.06;4910237;28;105240;-59
2022/12/12 07:15:34;;;;;;;9.37;6.50;;;;;;;-4.17;100.00;95721.97;4910974;28;101820;-59
2022/12/12 07:18:01;;;;;;;10.07;6.27;;;;;;;-4.14;100.00;95722.41;4910972;28;103744;-59
2022/12/12 07:20:28;;;;;;;12.23;6.43;;;;;;;-4.10;100.00;95723.69;4910253;28;105189;-59
2022/12/12 07:22:54;;;;;;;8.53;5.97;;;;;;;-4.16;100.00;95719.19;4911194;28;101906;-59
2022/12/12 07:25:23;;;;;;;10.77;7.03;;;;;;;-4.11;100.00;95714.28;4910978;28;105726;-59
2022/12/12 07:27:50;;;;;;;10.77;6.33;;;;;;;-4.07;100.00;95728.53;4909409;28;105043;-59
2022/12/12 07:30:16;;;;;;;9.20;6.30;;;;;;;-4.12;100.00;95732.63;4910937;28;101802;-59
2022/12/12 07:32:43;;;;;;;9.10;6.63;;;;;;;-4.13;100.00;95726.66;4913653;28;105607;-59
2022/12/12 07:35:10;;;;;;;8.63;6.13;;;;;;;-4.17;100.00;95727.16;4911056;28;102501;-59
2022/12/12 07:37:37;;;;;;;8.87;6.33;;;;;;;-4.17;100.00;95730.56;4910688;28;104972;-59
2022/12/12 07:40:04;;;;;;;12.50;7.60;;;;;;;-4.12;100.00;95735.22;4910368;28;105254;-59
2022/12/12 07:42:33;;;;;;;8.77;6.90;;;;;;;-3.89;100.00;95735.97;4910381;28;101930;-59
2022/12/12 07:45:00;;;;;;;9.67;7.60;;;;;;;-3.81;100.00;95743.69;4910616;28;105586;-59
2022/12/12 07:47:27;;;;;;;8.13;6.63;;;;;;;-4.08;100.00;95739.09;4910046;28;105476;-59
2022/12/12 07:49:54;;;;;;;8.33;6.30;;;;;;;-4.12;100.00;95740.41;4909550;28;101969;-59
2022/12/12 07:52:21;;;;;;;9.70;6.33;;;;;;;-4.05;100.00;95742.13;4910355;28;105251;-59
2022/12/12 07:54:48;;;;;;;8.67;6.20;;;;;;;-4.21;100.00;95744.09;4913519;28;105526;-59
2022/12/12 07:57:15;;;;;;;8.10;5.87;;;;;;;-4.07;100.00;95754.50;4910379;28;104928;-59
2022/12/12 07:59:43;;;;;;;9.10;6.27;;;;;;;-3.98;100.00;95756.00;4909535;28;105403;-59
2022/12/12 08:02:10;;;;;;;7.53;6.07;;;;;;;-3.99;100.00;95762.19;4910664;28;102012;-59
2022/12/12 08:04:37;;;;;;;8.40;5.80;;;;;;;-4.00;100.00;95751.97;4910534;28;104768;-59
2022/12/12 08:07:04;;;;;;;7.50;5.90;;;;;;;-4.15;100.00;95761.56;4911020;28;103148;-59
2022/12/12 08:09:31;;;;;;;6.70;5.27;;;;;;;-4.03;100.00;95750.56;4910399;28;102016;-59
2022/12/12 08:11:59;;;;;;;8.63;5.93;;;;;;;-3.94;100.00;95761.69;4910664;28;105316;-59
2022/12/12 08:14:26;;;;;;;8.17;6.30;;;;;;;-3.85;100.00;95764.03;4909706;28;105391;-59
2022/12/12 08:16:55;;;;;;;6.87;5.60;;;;;;;-3.83;100.00;95771.66;4913428;28;101861;-59
2022/12/12 08:19:22;;;;;;;7.80;5.87;;;;;;;-3.87;100.00;95776.34;4909642;28;105576;-59
2022/12/12 08:21:49;;;;;;;8.67;6.10;;;;;;;-3.86;100.00;95779.78;4910261;28;101882;-59
2022/12/12 08:24:16;;;;;;;9.83;6.73;;;;;;;-3.78;100.00;95775.31;4911655;28;103154;-59
2022/12/12 08:26:44;;;;;;;10.50;7.27;;;;;;;-3.93;100.00;95774.47;4910692;28;103864;-59
2022/12/12 08:29:12;;;;;;;8.57;5.93;;;;;;;-3.83;100.00;95785.41;4913092;28;101881;-59
2022/12/12 08:31:40;;;;;;;8.40;5.67;;;;;;;-3.84;100.00;95783.00;4913302;28;105232;-59
2022/12/12 08:34:08;;;;;;;8.93;5.90;;;;;;;-3.72;100.00;95781.59;4930150;28;102817;-59
2022/12/12 08:36:36;;;;;;;8.50;6.03;;;;;;;-3.51;100.00;95782.50;4916881;28;102213;-59
2022/12/12 08:39:05;;;;;;;8.80;6.07;;;;;;;-3.36;100.00;95790.28;4930116;28;102724;-59
2022/12/12 08:41:33;;;;;;;6.43;5.10;;;;;;;-3.43;100.00;95790.22;4912565;28;101991;-59
2022/12/12 08:44:00;;;;;;;7.37;5.57;;;;;;;-3.41;100.00;95793.44;4913147;28;105423;-59
2022/12/12 08:46:27;;;;;;;7.10;5.47;;;;;;;-3.26;100.00;95790.81;4912617;28;105217;-59
2022/12/12 08:48:54;;;;;;;7.43;5.77;;;;;;;-3.33;100.00;95788.13;4912948;28;101878;-59
2022/12/12 08:51:22;;;;;;;6.70;5.40;;;;;;;-2.99;100.00;95785.78;4913017;28;105734;-59
2022/12/12 08:53:51;;;;;;;8.63;5.43;;;;;;;-3.01;100.00;95792.94;4912623;28;105368;-59
2022/12/12 08:56:20;;;;;;;6.53;5.40;;;;;;;-3.07;100.00;95793.66;4912746;28;101816;-59
2022/12/12 08:58:47;;;;;;;7.20;5.60;;;;;;;-3.26;100.00;95791.66;4915785;28;104097;-59
2022/12/12 09:01:16;;;;;;;7.93;5.27;;;;;;;-3.01;100.00;95790.34;4914265;28;101894;-59
2022/12/12 09:03:43;;;;;;;7.23;5.63;;;;;;;-2.97;100.00;95799.41;4933467;28;102415;-59
2022/12/12 09:06:11;;;;;;;9.10;6.13;;;;;;;-3.10;100.00;95801.84;4915611;28;105661;-59
2022/12/12 09:08:39;;;;;;;7.73;5.47;;;;;;;-3.16;100.00;95805.16;4911176;28;102149;-56
2022/12/12 09:11:07;;;;;;;7.17;5.20;;;;;;;-3.11;100.00;95802.81;4912653;28;105204;-57
2022/12/12 09:13:35;;;;;;;9.30;6.47;;;;;;;-2.77;100.00;95807.44;4895570;28;105069;-54
2022/12/12 09:20:26;;;;;;;6.63;5.20;;;;;;;-2.62;100.00;95801.19;4892110;28;101960;-58
2022/12/12 09:22:53;;;;;;;7.60;4.90;;;;;;;-3.12;100.00;95808.22;4897319;28;103252;-58
2022/12/12 09:25:22;;;;;;;5.90;5.03;;;;;;;-2.85;100.00;95804.97;4893346;28;105322;-55
2022/12/12 09:27:49;;;;;;;7.27;5.97;;;;;;;-2.74;100.00;95807.09;4893589;28;102809;-56
2022/12/12 09:30:16;;;;;;;7.77;5.97;;;;;;;-2.48;100.00;95805.56;4894834;28;101947;-55
2022/12/12 09:32:43;;;;;;;6.10;5.10;;;;;;;-2.92;100.00;95807.47;4894610;28;102374;-54
2022/12/12 09:35:11;;;;;;;7.93;5.70;;;;;;;-2.55;100.00;95807.31;4876481;28;106110;-56
2022/12/12 09:37:38;;;;;;;5.97;5.33;;;;;;;-2.75;100.00;95803.66;4894132;28;101916;-56
2022/12/12 09:40:06;;;;;;;7.57;5.53;;;;;;;-2.66;100.00;95801.75;4887728;28;105340;-59
2022/12/12 09:42:40;;;;;;;7.80;5.20;;;;;;;-2.68;100.00;95807.13;4875993;28;105941;-56
2022/12/12 09:45:08;;;;;;;5.43;4.77;;;;;;;-2.71;100.00;95804.94;4880264;28;101872;-57
2022/12/12 09:47:39;;;;;;;7.67;5.00;;;;;;;-2.48;100.00;95808.16;4876189;28;105841;-54
2022/12/12 09:50:14;;;;;;;7.53;4.90;;;;;;;-2.29;100.00;95807.56;4876857;28;101959;-50
2022/12/12 09:52:42;;;;;;;6.97;5.10;;;;;;;-1.65;100.00;95801.31;4876762;28;104135;-54
2022/12/12 09:55:25;;;;;;;6.63;4.87;;;;;;;-1.76;100.00;95799.22;4893260;28;102766;-56
2022/12/12 09:57:59;;;;;;;5.87;4.83;;;;;;;-1.85;100.00;95809.97;4894223;28;101859;-54
2022/12/12 10:00:29;;;;;;;6.73;5.23;;;;;;;-1.79;100.00;95810.03;4876819;28;105297;-58
2022/12/12 10:03:15;;;;;;;6.70;5.30;;;;;;;-2.07;100.00;95808.38;4876239;28;106017;-59
2022/12/12 10:05:50;;;;;;;5.07;4.27;;;;;;;-2.09;100.00;95802.56;4894020;28;101842;-54
2022/12/12 10:08:22;;;;;;;8.70;4.70;;;;;;;-2.13;100.00;95804.69;4879325;28;105819;-57
2022/12/12 10:10:53;;;;;;;6.73;5.07;;;;;;;-2.25;100.00;95802.81;4894011;28;101776;-56
2022/12/12 10:13:27;;;;;;;7.23;5.10;;;;;;;-2.35;100.00;95800.47;4875628;28;105194;-56
2022/12/12 10:15:58;;;;;;;7.77;4.83;;;;;;;-2.34;100.00;95804.72;4875898;28;105528;-54
2022/12/12 10:18:30;;;;;;;6.17;5.17;;;;;;;-2.12;100.00;95798.53;4893539;28;101785;-55
2022/12/12 10:21:01;;;;;;;5.30;4.80;;;;;;;-1.68;100.00;95790.44;4893730;28;102422;-56
2022/12/12 10:23:38;;;;;;;8.07;4.77;;;;;;;-1.89;100.00;95793.91;4875517;28;105112;-55
2022/12/12 10:26:10;;;;;;;6.50;5.17;;;;;;;-2.14;100.00;95789.28;4876328;28;101935;-54
2022/12/12 10:28:38;;;;;;;6.73;5.23;;;;;;;-1.80;100.00;95805.00;4876328;28;104117;-54
2022/12/12 10:31:16;;;;;;;6.43;5.00;;;;;;;-1.98;100.00;95795.03;4896261;28;102830;-57
2022/12/12 10:33:56;;;;;;;6.57;4.77;;;;;;;-1.81;100.00;95791.16;4889568;28;105144;-55
2022/12/12 10:36:41;;;;;;;6.40;5.17;;;;;;;-1.56;100.00;95787.13;4911799;28;103012;-54
2022/12/12 10:39:16;;;;;;;6.53;4.93;;;;;;;-1.75;100.00;95790.41;4912664;28;101742;-56
2022/12/12 10:41:51;;;;;;;6.00;4.57;;;;;;;-1.55;100.00;95780.94;4895124;28;105265;-56
2022/12/12 10:44:40;;;;;;;5.30;4.80;;;;;;;-1.16;100.00;95781.16;4892433;28;104219;-56
2022/12/12 10:47:11;;;;;;;5.77;4.27;;;;;;;-0.89;100.00;95777.66;4878027;28;102726;-54
2022/12/12 10:49:40;;;;;;;5.27;4.33;;;;;;;-1.03;100.00;95776.00;4893489;28;102932;-55
2022/12/12 10:52:17;;;;;;;5.73;4.60;;;;;;;-0.90;100.00;95776.06;4895580;28;102714;-56
2022/12/12 10:54:51;;;;;;;4.63;4.10;;;;;;;-0.92;100.00;95770.25;4892981;28;102501;-53
2022/12/12 10:57:22;;;;;;;5.23;4.30;;;;;;;-0.76;100.00;95769.91;4875200;28;105541;-54
2022/12/12 10:59:53;;;;;;;5.63;4.30;;;;;;;-0.89;100.00;95763.84;4875924;28;101882;-54
2022/12/12 11:02:30;;;;;;;5.70;4.47;;;;;;;-0.88;100.00;95766.22;4875704;28;105439;-54
2022/12/12 11:05:06;;;;;;;5.97;3.90;;;;;;;-0.82;100.00;95767.25;4875151;28;105984;-56
2022/12/12 11:07:37;;;;;;;6.73;4.53;;;;;;;-0.95;100.00;95773.22;4892811;28;102144;-55
2022/12/12 11:10:20;;;;;;;7.33;4.50;;;;;;;-0.90;100.00;95772.63;4893117;28;102374;-55
2022/12/12 11:12:55;;;;;;;5.97;4.63;;;;;;;-0.83;100.00;95769.06;4875232;28;104300;-56
2022/12/12 11:15:29;;;;;;;6.63;4.80;;;;;;;-0.50;100.00;95772.56;4878844;28;101801;-56
2022/12/12 11:17:57;;;;;;;7.13;4.57;;;;;;;-0.66;100.00;95772.94;4874894;28;105699;-56
2022/12/12 11:20:25;;;;;;;6.07;4.77;;;;;;;-0.58;100.00;95772.75;4892388;28;102142;-55
2022/12/12 11:22:56;;;;;;;6.20;4.83;;;;;;;-0.37;100.00;95775.22;4875601;28;104960;-54
2022/12/12 11:25:26;;;;;;;6.43;4.73;;;;;;;-0.10;100.00;95769.03;4890537;28;105424;-57
2022/12/12 11:27:54;;;;;;;5.80;4.47;;;;;;;0.15;100.00;95770.03;4892688;28;102047;-56
2022/12/12 11:30:33;;;;;;;6.27;4.90;;;;;;;0.39;100.00;95764.22;4891214;28;104014;-57
2022/12/12 11:33:03;;;;;;;7.90;5.37;;;;;;;0.04;100.00;95761.00;4892170;28;102669;-53
2022/12/12 11:35:34;;;;;;;7.10;5.00;;;;;;;0.26;100.00;95761.59;4875092;28;101806;-55
2022/12/12 11:38:06;;;;;;;7.13;4.60;;;;;;;0.44;100.00;95756.56;4893792;28;105167;-56
2022/12/12 11:40:36;;;;;;;5.23;4.50;;;;;;;0.70;100.00;95757.31;4892437;28;101946;-57
2022/12/12 11:43:22;;;;;;;6.57;4.97;;;;;;;0.58;100.00;95752.91;4875139;28;105338;-55
2022/12/12 11:46:16;;;;;;;9.03;5.00;;;;;;;0.10;100.00;95756.78;4874512;28;106865;-56
2022/12/12 11:48:47;;;;;;;5.57;4.10;;;;;;;0.29;100.00;95753.38;4892136;28;102188;-57
2022/12/12 11:51:29;;;;;;;5.60;4.50;;;;;;;0.19;100.00;95756.38;4890885;28;105702;-56
2022/12/12 11:53:59;;;;;;;5.13;4.20;;;;;;;-0.45;100.00;95744.06;4890255;28;105060;-55
2022/12/12 11:56:54;;;;;;;6.13;4.40;;;;;;;-0.29;100.00;95748.91;4892096;28;101978;-57
2022/12/12 11:59:42;;;;;;;4.80;4.10;;;;;;;-0.16;100.00;95749.72;4875055;28;105346;-56
2022/12/12 12:02:36;;;;;;;6.53;4.07;;;;;;;0.28;100.00;95744.69;4877699;28;105039;-56
2022/12/12 12:05:15;;;;;;;4.97;4.13;;;;;;;0.80;100.00;95736.78;4892290;28;102556;-55
2022/12/12 12:08:01;;;;;;;4.53;3.83;;;;;;;1.12;100.00;95737.66;4891843;28;101870;-54
2022/12/12 12:10:45;;;;;;;5.00;4.30;;;;;;;1.32;100.00;95735.75;4890933;28;102531;-56
2022/12/12 12:13:25;;;;;;;6.60;4.40;;;;;;;1.17;100.00;95737.84;4892407;28;102680;-56
2022/12/12 12:15:56;;;;;;;5.03;4.30;;;;;;;1.44;100.00;95739.31;4891598;28;101680;-55
2022/12/12 12:18:36;;;;;;;4.77;4.03;;;;;;;1.24;100.00;95739.41;4891747;28;101720;-53
2022/12/12 12:21:29;;;;;;;5.17;4.23;;;;;;;0.67;100.00;95736.78;4874658;28;105392;-55
2022/12/12 12:24:16;;;;;;;4.40;3.93;;;;;;;0.96;100.00;95738.94;4874246;28;105483;-55